Upstream stations:
Downstream station:
SHEF ID: OSOK1 Oswego hwy 160
STATION TYPE:
PRECIP STAGE RIV-FLOW VOLTAGE BAT-LOAD
in ft cfs volt volt
Ccp-Rev Ccp-Rev Ccp-Rev Ccp-Rev Ccp-Rev
(US/Central)
03/21 00:00 0.00 9.67 738 12.65 12.49
03/21 01:00 0.00 9.66 731 12.57 12.49
03/21 02:00 0.00 9.67 738 12.57 12.49
03/21 03:00 0.00 9.66 731 12.57 12.49
03/21 04:00 0.00 9.65 724 12.57 12.41
03/21 05:00 0.00 9.67 738 12.57 12.41
03/21 06:00 0.00 9.65 724 12.57 12.41
03/21 07:00 0.00 9.64 717 12.57 12.41
03/21 08:00 0.00 9.65 724 12.57 12.41
03/21 09:00 0.00 9.61 697 12.65 12.49
03/21 10:00 0.00 9.63 710 12.65 12.57
03/21 11:00 0.00 9.63 710 12.57 12.49
03/21 12:00 0.07 9.61 697 12.57 12.41
03/21 13:00 0.09 9.62 703 12.73 12.65
03/21 14:00 0.00 9.59 683 12.65 12.57
03/21 15:00 0.04 9.60 690 12.57 12.41
03/21 16:00 0.30 9.61 697 12.49 12.41
03/21 17:00 0.27 9.58 677 12.49 12.41
03/21 18:00 0.18 9.64 717 12.49 12.41
03/21 19:00 0.07 9.68 745 12.57 12.41
03/21 20:00 0.03 9.70 759 12.49 12.41
03/21 21:00 0.03 9.75 795 12.57 12.41
03/21 22:00 0.14 9.82 847 12.57 12.41
03/21 23:00 ---- ---- ---- ---- ----